Time;durP1;ratioP1;P1;durP2;ratioP2;P2;SDS_P1;SDS_P2;PMS_P1;PMS_P2;Temp;Humidity;BMP_temperature;BMP_pressure;BME280_temperature;BME280_humidity;BME280_pressure;Samples;Min_cycle;Max_cycle;Signal;HPM_P1;HPM_P2
2021/03/26 00:01:04;;;;;;;22.60;11.15;;;;;;;6.23;55.80;100484.22;5039302;28;20318;-70
2021/03/26 00:03:32;;;;;;;22.27;11.15;;;;;;;6.06;56.75;100488.13;5039247;28;20231;-65
2021/03/26 00:06:06;;;;;;;21.13;10.77;;;;;;;5.96;56.85;100495.00;5038037;28;20044;-70
2021/03/26 00:08:32;;;;;;;22.15;10.88;;;;;;;5.94;56.97;100489.03;5037655;28;20030;-70
2021/03/26 00:10:58;;;;;;;20.80;11.27;;;;;;;5.88;57.43;100492.94;5039421;28;20055;-70
2021/03/26 00:13:24;;;;;;;19.95;10.55;;;;;;;5.84;57.80;100496.72;5038801;28;20029;-70
2021/03/26 00:15:49;;;;;;;18.25;10.25;;;;;;;5.73;57.38;100492.28;5046042;28;20068;-65
2021/03/26 00:18:15;;;;;;;18.55;10.10;;;;;;;5.68;57.18;100491.78;5041440;28;20029;-65
2021/03/26 00:20:40;;;;;;;22.05;9.82;;;;;;;5.69;56.81;100493.44;5041133;28;20040;-67
2021/03/26 00:23:06;;;;;;;21.20;10.15;;;;;;;5.71;56.93;100488.91;5042676;28;20271;-67
2021/03/26 00:25:33;;;;;;;22.38;10.35;;;;;;;5.58;57.12;100497.81;5040870;28;20350;-66
2021/03/26 00:27:58;;;;;;;23.27;11.70;;;;;;;5.37;57.26;100495.78;5041343;28;20315;-66
2021/03/26 00:30:24;;;;;;;24.17;11.73;;;;;;;5.50;57.02;100495.75;5043210;28;20108;-67
2021/03/26 00:32:50;;;;;;;22.73;10.88;;;;;;;5.67;56.77;100497.13;5040907;28;20052;-67
2021/03/26 00:35:18;;;;;;;75.20;29.83;;;;;;;5.59;57.01;100497.69;5045350;28;20029;-67
2021/03/26 00:37:43;;;;;;;194.50;69.43;;;;;;;5.62;57.06;100507.97;5042048;28;20037;-70
2021/03/26 00:40:12;;;;;;;63.03;25.65;;;;;;;5.61;56.65;100508.94;5042120;28;20029;-70
2021/03/26 00:42:38;;;;;;;42.95;19.33;;;;;;;5.65;56.11;100494.63;5043285;28;20052;-70
2021/03/26 00:45:06;;;;;;;44.28;21.50;;;;;;;5.73;56.23;100504.56;5042653;28;20061;-66
2021/03/26 00:47:31;;;;;;;57.38;32.65;;;;;;;5.69;56.61;100503.13;5041309;28;20029;-71
2021/03/26 00:49:56;;;;;;;48.53;26.20;;;;;;;5.69;56.41;100498.69;5041025;28;20075;-71
2021/03/26 00:52:22;;;;;;;42.28;22.42;;;;;;;5.61;56.19;100479.19;5042600;28;20033;-71
2021/03/26 00:54:47;;;;;;;47.15;28.10;;;;;;;5.73;55.70;100505.41;5040923;28;20029;-71
2021/03/26 00:57:13;;;;;;;47.45;25.05;;;;;;;5.73;55.81;100504.56;5040209;28;20025;-70
2021/03/26 00:59:38;;;;;;;31.98;15.07;;;;;;;5.67;56.20;100499.75;5042036;28;20025;-71
2021/03/26 01:02:04;;;;;;;29.80;15.07;;;;;;;5.69;56.06;100503.97;5040302;28;20027;-66
2021/03/26 01:04:29;;;;;;;25.13;11.98;;;;;;;5.60;55.86;100509.03;5044725;28;20039;-70
2021/03/26 01:06:54;;;;;;;25.55;12.05;;;;;;;5.47;56.80;100508.25;5040252;28;20434;-67
2021/03/26 01:09:20;;;;;;;21.60;10.77;;;;;;;5.53;56.57;100513.06;5040205;28;20284;-71
2021/03/26 01:11:46;;;;;;;22.95;11.27;;;;;;;5.39;57.42;100507.03;5042110;28;20093;-66
2021/03/26 01:14:15;;;;;;;22.52;11.65;;;;;;;5.31;57.55;100508.53;5040071;28;20054;-66
2021/03/26 01:16:41;;;;;;;24.10;12.30;;;;;;;5.11;58.22;100510.75;5041825;28;20081;-71
2021/03/26 01:19:09;;;;;;;21.90;12.40;;;;;;;5.25;57.73;100506.34;5039480;28;20504;-71
2021/03/26 01:21:37;;;;;;;20.58;11.50;;;;;;;5.26;58.00;100516.72;5040627;28;20042;-71
2021/03/26 01:24:04;;;;;;;32.10;13.70;;;;;;;5.27;57.49;100502.66;5041217;28;20309;-71
2021/03/26 01:26:29;;;;;;;26.58;12.55;;;;;;;5.36;57.49;100520.38;5041292;28;20033;-70
2021/03/26 01:28:55;;;;;;;26.35;12.35;;;;;;;5.33;57.54;100504.00;5039634;28;20302;-72
2021/03/26 01:31:21;;;;;;;30.95;13.27;;;;;;;5.43;57.44;100516.34;5044630;28;20113;-66
2021/03/26 01:33:47;;;;;;;27.25;12.82;;;;;;;5.43;57.25;100515.53;5040468;28;20033;-70
2021/03/26 01:36:13;;;;;;;25.65;12.68;;;;;;;5.54;57.51;100517.38;5040670;28;20079;-71
2021/03/26 01:38:39;;;;;;;25.52;12.25;;;;;;;5.47;57.41;100518.75;5041173;28;20028;-71
2021/03/26 01:41:33;;;;;;;25.25;13.40;;;;;;;5.43;57.59;100512.91;5039666;28;20033;-71
2021/03/26 01:43:58;;;;;;;25.17;13.02;;;;;;;5.47;57.40;100516.97;5042256;28;20041;-67
2021/03/26 01:46:26;;;;;;;25.30;13.77;;;;;;;5.49;57.32;100517.69;5041791;28;20561;-71
2021/03/26 01:48:57;;;;;;;33.95;16.35;;;;;;;5.45;57.40;100511.84;5039350;28;20021;-72
2021/03/26 01:51:30;;;;;;;63.67;24.77;;;;;;;5.53;57.24;100524.41;5040386;28;20294;-71
2021/03/26 01:53:56;;;;;;;60.65;25.85;;;;;;;5.41;57.66;100515.63;5042012;28;20537;-72
2021/03/26 01:56:22;;;;;;;52.03;23.23;;;;;;;5.43;57.06;100518.16;5040063;28;20047;-72
2021/03/26 01:58:48;;;;;;;44.05;20.58;;;;;;;5.48;56.72;100525.69;5039685;28;20033;-71
2021/03/26 02:01:21;;;;;;;35.38;18.00;;;;;;;5.39;57.34;100521.94;5040963;28;20240;-71
2021/03/26 02:03:52;;;;;;;39.95;17.60;;;;;;;5.37;57.84;100521.22;5039509;28;20301;-73
2021/03/26 02:06:27;;;;;;;28.88;15.80;;;;;;;5.38;57.35;100520.25;5039823;28;20040;-68
2021/03/26 02:08:59;;;;;;;33.83;16.00;;;;;;;5.30;57.12;100525.22;5043754;28;20050;-72
2021/03/26 02:11:32;;;;;;;27.52;15.02;;;;;;;5.19;57.34;100530.38;5055268;28;20068;-72
2021/03/26 02:14:01;;;;;;;95.80;25.20;;;;;;;5.20;57.18;100524.16;5060017;28;20063;-68
2021/03/26 02:16:28;;;;;;;36.23;15.93;;;;;;;5.21;57.14;100526.72;5051931;28;20094;-67
2021/03/26 02:18:53;;;;;;;30.15;15.25;;;;;;;5.10;57.58;100527.44;5042425;28;20052;-66
2021/03/26 02:21:24;;;;;;;26.10;13.90;;;;;;;5.04;57.80;100530.50;5042041;28;20098;-68
2021/03/26 02:23:52;;;;;;;23.33;13.40;;;;;;;5.01;57.69;100522.84;5040748;28;20032;-69
2021/03/26 02:26:27;;;;;;;34.50;14.70;;;;;;;5.01;58.14;100532.50;5038547;28;20100;-69
2021/03/26 02:28:54;;;;;;;31.83;16.57;;;;;;;5.11;57.71;100526.50;5038126;28;20025;-68
2021/03/26 02:31:20;;;;;;;30.60;15.10;;;;;;;4.98;56.62;100530.94;5038773;28;20025;-68
2021/03/26 02:33:48;;;;;;;29.67;14.17;;;;;;;4.85;57.25;100530.09;5041385;28;20345;-73
2021/03/26 02:36:13;;;;;;;28.07;15.27;;;;;;;4.77;57.58;100545.53;5038575;28;20040;-73
2021/03/26 02:38:57;;;;;;;31.07;14.70;;;;;;;4.79;58.09;100546.28;5038916;28;20025;-73
2021/03/26 02:41:42;;;;;;;28.50;15.43;;;;;;;4.71;58.35;100543.34;5037509;28;20040;-73
2021/03/26 02:44:21;;;;;;;40.40;15.63;;;;;;;4.72;58.77;100547.66;5040719;28;20104;-69
2021/03/26 02:47:20;;;;;;;32.93;15.37;;;;;;;4.78;58.71;100544.59;5040609;28;20029;-68
2021/03/26 02:50:04;;;;;;;31.37;15.23;;;;;;;4.89;58.34;100549.94;5050574;28;20037;-68
2021/03/26 02:52:50;;;;;;;;;;;;;;;4.89;58.01;100556.97;5041434;28;20029;-68
2021/03/26 02:55:43;;;;;;;30.43;15.00;;;;;;;4.81;58.69;100560.13;5043983;28;19917;-68
2021/03/26 02:58:24;;;;;;;34.40;15.50;;;;;;;4.71;58.07;100559.91;5038508;28;20040;-69
2021/03/26 03:01:21;;;;;;;33.57;15.40;;;;;;;4.74;58.32;100566.75;5038667;28;20108;-69
2021/03/26 03:03:50;;;;;;;30.67;15.30;;;;;;;4.89;57.91;100568.31;5043396;28;20590;-68
2021/03/26 03:06:25;;;;;;;29.25;15.02;;;;;;;4.95;57.62;100557.41;5039047;28;20041;-69
2021/03/26 03:08:52;;;;;;;31.13;14.47;;;;;;;4.94;58.18;100568.00;5038360;28;20048;-73
2021/03/26 03:11:39;;;;;;;37.37;15.80;;;;;;;4.87;57.85;100564.97;5038482;28;20350;-73
2021/03/26 03:14:11;;;;;;;135.13;35.67;;;;;;;4.95;57.24;100574.91;5037473;28;20056;-73
2021/03/26 03:16:47;;;;;;;72.43;28.17;;;;;;;4.90;57.16;100574.41;5042887;28;20042;-73
2021/03/26 03:19:40;;;;;;;32.97;15.17;;;;;;;4.79;56.30;100556.78;5040078;28;20113;-73
2021/03/26 03:22:12;;;;;;;29.90;15.40;;;;;;;4.75;56.36;100578.91;5040284;28;20347;-73
2021/03/26 03:24:41;;;;;;;32.73;15.67;;;;;;;4.68;56.71;100575.03;5038219;28;20060;-74
2021/03/26 03:27:16;;;;;;;37.60;17.60;;;;;;;4.64;57.37;100576.19;5038119;28;20040;-74
2021/03/26 03:29:56;;;;;;;40.77;16.50;;;;;;;4.63;57.65;100575.34;5043040;28;20040;-73
2021/03/26 03:32:29;;;;;;;33.03;15.83;;;;;;;4.74;57.60;100572.00;5054708;28;20197;-73
2021/03/26 03:35:14;;;;;;;45.20;19.05;;;;;;;4.66;57.38;100574.28;5040190;28;20112;-68
2021/03/26 03:37:53;;;;;;;35.20;15.80;;;;;;;4.62;57.21;100581.53;5042471;28;20084;-69
2021/03/26 03:40:34;;;;;;;58.63;23.40;;;;;;;4.56;58.25;100583.72;5039901;28;20030;-73
2021/03/26 03:43:31;;;;;;;43.37;18.27;;;;;;;4.73;57.97;100580.81;5040944;28;20108;-68
2021/03/26 03:46:19;;;;;;;48.37;21.30;;;;;;;4.69;57.87;100588.03;5038276;28;20230;-73
2021/03/26 03:48:53;;;;;;;60.60;25.17;;;;;;;4.67;57.79;100586.47;5043052;28;20045;-74
2021/03/26 03:51:25;;;;;;;173.75;43.60;;;;;;;4.64;58.35;100589.28;5044010;28;20037;-74
2021/03/26 03:53:57;;;;;;;71.90;28.03;;;;;;;4.57;58.06;100594.13;5043444;28;20200;-73
2021/03/26 03:56:35;;;;;;;81.93;29.23;;;;;;;4.43;58.72;100602.06;5041699;28;20044;-73
2021/03/26 03:59:06;;;;;;;84.30;27.00;;;;;;;4.47;58.59;100596.53;5042125;28;20056;-73
2021/03/26 04:01:41;;;;;;;127.55;37.42;;;;;;;4.62;57.56;100601.69;5043578;28;20021;-68
2021/03/26 04:04:26;;;;;;;70.30;29.30;;;;;;;4.58;57.51;100608.06;5042747;28;20056;-72
2021/03/26 04:06:56;;;;;;;78.10;33.17;;;;;;;4.61;57.33;100605.25;5044212;28;20049;-69
2021/03/26 04:09:28;;;;;;;81.40;27.63;;;;;;;4.57;57.45;100609.84;5041526;28;20033;-69
2021/03/26 04:11:58;;;;;;;40.57;17.83;;;;;;;4.51;57.10;100598.94;5041567;28;20057;-73
2021/03/26 04:14:30;;;;;;;59.17;23.53;;;;;;;4.31;57.71;100606.34;5042545;28;20024;-72
2021/03/26 04:17:07;;;;;;;40.83;21.87;;;;;;;4.53;57.52;100602.28;5042676;28;20042;-73
2021/03/26 04:19:41;;;;;;;57.47;24.33;;;;;;;4.55;57.19;100600.41;5041529;28;20063;-73
2021/03/26 04:22:09;;;;;;;53.22;23.85;;;;;;;4.38;57.76;100596.28;5042340;28;20041;-72
2021/03/26 04:24:58;;;;;;;60.57;23.63;;;;;;;4.51;57.20;100596.31;5041669;28;21421;-71
2021/03/26 04:27:40;;;;;;;46.17;22.43;;;;;;;4.69;56.83;100608.19;5042526;28;20056;-73
2021/03/26 04:30:12;;;;;;;39.03;20.00;;;;;;;4.67;56.68;100607.44;5042762;28;20220;-73
2021/03/26 04:32:38;;;;;;;38.90;17.57;;;;;;;4.73;56.42;100620.16;5043615;28;20029;-74
2021/03/26 04:35:06;;;;;;;37.93;18.83;;;;;;;4.66;56.31;100618.88;5041168;28;20227;-74
2021/03/26 04:37:36;;;;;;;39.67;18.63;;;;;;;4.67;56.50;100620.56;5043135;28;20098;-68
2021/03/26 04:40:11;;;;;;;38.70;17.70;;;;;;;4.68;57.35;100606.50;5043816;28;20048;-68
2021/03/26 04:42:49;;;;;;;34.45;16.83;;;;;;;4.62;57.40;100623.50;5040865;28;20060;-68
2021/03/26 04:45:28;;;;;;;34.47;17.27;;;;;;;4.70;55.98;100615.13;5045215;28;20211;-72
2021/03/26 04:48:11;;;;;;;113.07;30.50;;;;;;;4.67;56.86;100620.56;5042237;28;20428;-74
2021/03/26 04:50:43;;;;;;;101.93;29.50;;;;;;;4.65;56.52;100619.84;5043188;28;20247;-74
2021/03/26 04:53:16;;;;;;;46.70;18.87;;;;;;;4.70;56.51;100617.75;5040247;28;20048;-73
2021/03/26 04:55:50;;;;;;;69.60;23.40;;;;;;;4.73;56.31;100621.00;5041633;28;20035;-74
2021/03/26 04:58:20;;;;;;;47.55;20.83;;;;;;;4.68;56.58;100627.50;5042190;28;20038;-74
2021/03/26 05:00:57;;;;;;;48.10;23.57;;;;;;;4.75;56.31;100634.00;5040209;28;20041;-73
2021/03/26 05:03:37;;;;;;;59.40;30.30;;;;;;;4.90;56.24;100634.75;5040465;28;20033;-71
2021/03/26 05:06:08;;;;;;;59.22;26.00;;;;;;;4.93;56.14;100627.50;5040645;28;20207;-72
2021/03/26 05:08:35;;;;;;;64.55;32.38;;;;;;;4.91;55.97;100633.81;5063103;28;20306;-73
2021/03/26 05:11:04;;;;;;;64.70;32.77;;;;;;;4.98;55.89;100635.91;5042069;28;20025;-68
2021/03/26 05:13:46;;;;;;;59.70;30.27;;;;;;;5.04;55.53;100640.75;5043730;28;20041;-71
2021/03/26 05:16:31;;;;;;;68.80;27.97;;;;;;;4.98;55.05;100643.78;5040223;28;20334;-69
2021/03/26 05:19:10;;;;;;;55.37;24.83;;;;;;;4.66;56.73;100645.13;5039482;28;20037;-67
2021/03/26 05:21:43;;;;;;;64.70;25.13;;;;;;;4.75;56.78;100641.88;5040010;28;20112;-66
2021/03/26 05:24:40;;;;;;;59.33;24.50;;;;;;;4.71;56.89;100649.13;5040358;28;20234;-66
2021/03/26 05:27:08;;;;;;;47.13;22.63;;;;;;;5.00;56.63;100636.66;5040734;28;20045;-66
2021/03/26 05:29:34;;;;;;;53.40;23.15;;;;;;;5.05;57.23;100634.56;5039780;28;20071;-66
2021/03/26 05:32:18;;;;;;;66.47;28.08;;;;;;;5.42;56.04;100642.53;5041534;28;20029;-71
2021/03/26 05:35:02;;;;;;;38.03;18.13;;;;;;;5.46;56.24;100659.75;5041742;28;20032;-66
2021/03/26 05:37:33;;;;;;;23.83;11.57;;;;;;;5.39;55.97;100666.41;5043919;28;20038;-71
2021/03/26 05:40:15;;;;;;;27.03;12.90;;;;;;;5.10;56.94;100661.31;5041411;28;20072;-67
2021/03/26 05:42:50;;;;;;;20.20;11.23;;;;;;;5.55;56.47;100668.78;5041798;28;20044;-67
2021/03/26 05:45:18;;;;;;;;;;;;;;;5.65;55.79;100662.78;5041333;28;20720;-71
2021/03/26 05:48:03;;;;;;;18.08;10.13;;;;;;;5.53;56.18;100668.91;5039009;28;20033;-66
2021/03/26 05:50:53;;;;;;;19.13;9.75;;;;;;;5.40;56.25;100675.94;5039837;28;20239;-68
2021/03/26 05:53:32;;;;;;;22.60;11.10;;;;;;;5.29;57.73;100681.09;5039998;28;20343;-68
2021/03/26 05:56:27;;;;;;;25.60;13.10;;;;;;;5.39;58.93;100669.84;5039519;28;20034;-65
2021/03/26 05:59:01;;;;;;;22.90;12.17;;;;;;;5.38;58.33;100673.44;5041206;28;20438;-68
2021/03/26 06:01:26;;;;;;;;;;;;;;;5.50;58.90;100673.53;5041465;28;20143;-68
2021/03/26 06:04:19;;;;;;;26.92;12.50;;;;;;;5.64;57.84;100668.97;5039727;28;20210;-71
2021/03/26 06:07:03;;;;;;;32.60;14.55;;;;;;;6.08;57.34;100676.34;5039943;28;20297;-67
2021/03/26 06:09:59;;;;;;;33.60;13.70;;;;;;;6.66;55.82;100682.63;5045423;28;20254;-66
2021/03/26 06:12:45;;;;;;;31.50;13.63;;;;;;;7.24;53.84;100680.88;5046391;28;20349;-67
2021/03/26 06:15:37;;;;;;;34.80;13.48;;;;;;;7.67;54.45;100674.91;5055408;28;20028;-67
2021/03/26 06:18:31;;;;;;;26.50;14.20;;;;;;;8.20;51.89;100675.91;5045476;28;20037;-66
2021/03/26 06:21:37;;;;;;;48.35;17.52;;;;;;;8.54;48.95;100681.13;5047759;28;20287;-65
2021/03/26 06:24:06;;;;;;;78.82;20.88;;;;;;;8.80;47.94;100677.19;5048638;28;20057;-66
2021/03/26 06:26:46;;;;;;;34.05;12.77;;;;;;;8.87;46.45;100686.25;5039918;28;20035;-68
2021/03/26 06:29:36;;;;;;;35.97;15.70;;;;;;;9.23;46.54;100676.19;5039206;28;20339;-68
2021/03/26 06:32:29;;;;;;;37.30;17.65;;;;;;;9.55;45.26;100684.88;5040108;28;20087;-73
2021/03/26 06:35:38;;;;;;;27.23;12.93;;;;;;;9.84;43.17;100695.56;5040283;28;20044;-68
2021/03/26 06:38:27;;;;;;;30.40;14.63;;;;;;;10.14;43.24;100680.59;5038500;28;20075;-69
2021/03/26 06:41:05;;;;;;;22.98;11.60;;;;;;;10.00;44.03;100678.34;5041155;28;20067;-68
2021/03/26 06:43:36;;;;;;;23.20;11.38;;;;;;;10.15;45.04;100682.28;5040126;28;20117;-69
2021/03/26 06:46:29;;;;;;;26.23;12.98;;;;;;;10.33;43.87;100685.13;5041101;28;20087;-73
2021/03/26 06:48:55;;;;;;;25.88;12.38;;;;;;;10.39;43.95;100687.22;5039103;28;20120;-73
2021/03/26 06:51:42;;;;;;;24.58;11.40;;;;;;;10.37;43.95;100686.53;5041269;28;20334;-73
2021/03/26 06:54:25;;;;;;;36.78;14.60;;;;;;;10.57;44.21;100690.06;5040856;28;20235;-73
2021/03/26 06:57:33;;;;;;;36.57;17.40;;;;;;;10.77;43.66;100689.91;5039363;28;20056;-73
2021/03/26 07:00:14;;;;;;;28.65;13.48;;;;;;;10.62;43.80;100682.53;5049152;28;20041;-73
2021/03/26 07:03:01;;;;;;;21.40;10.85;;;;;;;10.73;44.02;100685.88;5039248;28;20045;-66
2021/03/26 07:05:47;;;;;;;22.52;12.07;;;;;;;10.89;44.50;100690.59;5038539;28;20033;-71
2021/03/26 07:08:21;;;;;;;26.75;13.15;;;;;;;10.94;44.36;100692.81;5037653;28;20041;-66
2021/03/26 07:11:00;;;;;;;21.85;11.93;;;;;;;10.69;43.89;100695.06;5038414;28;20033;-66
2021/03/26 07:14:08;;;;;;;29.30;12.80;;;;;;;11.18;44.70;100696.69;5038383;28;20033;-66
2021/03/26 07:17:09;;;;;;;22.60;11.70;;;;;;;11.64;43.04;100695.03;5057820;28;20325;-72
2021/03/26 07:19:56;;;;;;;36.20;13.98;;;;;;;11.79;42.63;100696.25;5053459;28;20033;-72
2021/03/26 07:22:50;;;;;;;25.50;12.35;;;;;;;11.74;41.40;100693.19;5042225;28;20350;-71
2021/03/26 07:25:32;;;;;;;27.42;11.82;;;;;;;11.55;42.15;100693.25;5046863;28;20061;-71
2021/03/26 07:28:00;;;;;;;26.23;12.15;;;;;;;11.52;41.63;100698.84;5045773;28;20091;-71
2021/03/26 07:30:41;;;;;;;28.15;11.38;;;;;;;11.60;41.63;100695.47;5042616;28;20035;-71
2021/03/26 07:33:24;;;;;;;23.80;12.23;;;;;;;12.07;42.19;100694.44;5044730;28;20057;-71
2021/03/26 07:36:18;;;;;;;20.52;11.10;;;;;;;12.24;41.61;100698.13;5044067;28;20033;-71
2021/03/26 07:39:01;;;;;;;23.25;12.00;;;;;;;12.61;41.18;100681.25;5043885;28;20029;-71
2021/03/26 07:41:54;;;;;;;27.08;12.00;;;;;;;12.58;41.12;100682.38;5042316;28;20026;-71
2021/03/26 07:44:30;;;;;;;22.05;11.38;;;;;;;12.79;39.98;100687.38;5051734;28;20041;-69
2021/03/26 07:47:27;;;;;;;21.05;10.80;;;;;;;12.66;40.20;100684.28;5042482;28;20556;-66
2021/03/26 07:50:23;;;;;;;22.58;10.43;;;;;;;12.60;38.63;100683.06;5043169;28;20059;-66
2021/03/26 07:53:14;;;;;;;20.77;10.40;;;;;;;12.45;39.82;100681.91;5043928;28;20030;-66
2021/03/26 07:56:01;;;;;;;19.55;10.68;;;;;;;12.67;40.98;100683.28;5051743;28;20339;-66
2021/03/26 07:58:51;;;;;;;18.80;10.68;;;;;;;13.05;39.44;100692.75;5054530;28;20108;-70
2021/03/26 08:01:38;;;;;;;21.92;9.93;;;;;;;12.83;37.71;100682.59;5054271;28;20029;-66
2021/03/26 08:04:11;;;;;;;18.58;9.48;;;;;;;12.63;37.89;100688.06;5052348;28;20074;-70
2021/03/26 08:07:14;;;;;;;18.70;9.52;;;;;;;12.66;38.53;100694.91;5051860;28;20319;-66
2021/03/26 08:10:34;;;;;;;24.35;9.98;;;;;;;12.88;38.10;100693.59;5052980;28;20047;-65
2021/03/26 08:13:19;;;;;;;19.92;10.32;;;;;;;13.07;36.73;100696.06;5052588;28;20040;-71
2021/03/26 08:15:57;;;;;;;18.50;10.07;;;;;;;13.20;35.43;100699.19;5051536;28;20101;-70
2021/03/26 08:18:28;;;;;;;21.02;9.60;;;;;;;13.09;34.48;100702.06;5052249;28;20045;-71
2021/03/26 08:21:06;;;;;;;22.30;9.70;;;;;;;13.14;34.41;100702.44;5051911;28;20234;-71
2021/03/26 08:23:42;;;;;;;20.48;9.98;;;;;;;13.37;35.31;100710.78;5052501;28;20040;-71
2021/03/26 08:26:34;;;;;;;18.40;10.07;;;;;;;13.25;33.66;100712.03;5053252;28;20029;-71
2021/03/26 08:29:17;;;;;;;19.75;10.55;;;;;;;13.37;34.71;100711.59;5051614;28;20029;-71
2021/03/26 08:32:01;;;;;;;17.10;9.52;;;;;;;13.31;34.22;100708.75;5062546;28;20208;-70
2021/03/26 08:34:37;;;;;;;23.40;9.90;;;;;;;13.34;34.32;100709.25;5058027;28;20205;-70
2021/03/26 08:37:22;;;;;;;18.80;10.02;;;;;;;13.51;32.92;100704.03;5053342;28;20056;-67
2021/03/26 08:39:53;;;;;;;21.17;9.98;;;;;;;13.75;33.96;100701.53;5055327;28;20040;-66
2021/03/26 08:42:28;;;;;;;17.25;9.35;;;;;;;13.71;33.27;100705.50;5052608;28;21077;-66
2021/03/26 08:44:58;;;;;;;22.30;10.27;;;;;;;13.71;33.06;100701.03;5054083;28;20037;-70
2021/03/26 08:47:33;;;;;;;21.92;10.20;;;;;;;13.71;33.15;100706.34;5051423;28;20323;-66
2021/03/26 08:50:23;;;;;;;27.42;11.63;;;;;;;13.72;34.41;100704.53;5052698;28;20021;-71
2021/03/26 08:53:43;;;;;;;22.63;10.77;;;;;;;13.60;34.33;100711.09;5053664;28;20028;-71
2021/03/26 08:56:22;;;;;;;15.73;9.00;;;;;;;13.42;33.01;100711.97;5041281;28;20025;-70
2021/03/26 08:59:08;;;;;;;19.63;10.50;;;;;;;13.20;32.97;100712.50;5060336;28;20095;-70
2021/03/26 09:02:09;;;;;;;18.27;10.45;;;;;;;13.33;32.69;100715.56;5051681;28;20092;-65
2021/03/26 09:04:57;;;;;;;19.08;10.43;;;;;;;13.19;33.52;100718.81;5052869;28;20493;-66
2021/03/26 09:07:42;;;;;;;19.17;10.23;;;;;;;13.34;32.95;100717.25;5051550;28;20039;-70
2021/03/26 09:10:52;;;;;;;21.30;11.27;;;;;;;13.61;33.12;100715.44;5051831;28;20036;-72
2021/03/26 09:13:33;;;;;;;36.17;14.80;;;;;;;13.39;32.73;100717.59;5055560;28;20049;-66
2021/03/26 09:16:40;;;;;;;24.27;12.35;;;;;;;13.56;31.95;100715.91;5051974;28;20024;-73
2021/03/26 09:19:22;;;;;;;25.63;12.18;;;;;;;13.82;31.90;100705.22;5064449;28;20036;-72
2021/03/26 09:22:24;;;;;;;18.75;8.85;;;;;;;13.67;31.74;100718.31;5063175;28;20094;-71
2021/03/26 09:25:23;;;;;;;17.83;8.82;;;;;;;13.76;33.05;100707.69;5055912;28;20331;-71
2021/03/26 09:27:53;;;;;;;15.43;8.95;;;;;;;14.00;31.97;100713.97;5061684;28;20478;-70
2021/03/26 09:30:52;;;;;;;16.40;8.80;;;;;;;13.97;31.64;100711.63;5058179;28;20062;-72
2021/03/26 09:33:18;;;;;;;17.13;8.75;;;;;;;13.98;29.97;100699.13;5054928;28;20057;-66
2021/03/26 09:35:53;;;;;;;15.45;7.95;;;;;;;14.00;30.29;100703.31;5051681;28;20056;-66
2021/03/26 09:38:35;;;;;;;21.00;7.38;;;;;;;14.26;28.28;100703.22;5060121;28;20031;-72
2021/03/26 09:41:26;;;;;;;24.65;11.57;;;;;;;14.37;30.38;100705.59;5059847;28;20379;-68
2021/03/26 09:44:04;;;;;;;15.93;9.38;;;;;;;14.00;31.05;100682.00;5052289;28;20033;-72
2021/03/26 09:47:15;;;;;;;17.17;9.45;;;;;;;14.16;32.15;100699.88;5050399;28;20029;-67
2021/03/26 09:49:46;;;;;;;20.35;9.90;;;;;;;14.20;32.08;100689.72;5049704;28;20052;-67
2021/03/26 09:52:21;;;;;;;20.25;9.60;;;;;;;14.14;32.15;100682.38;5053271;28;20044;-68
2021/03/26 09:54:51;;;;;;;14.18;8.10;;;;;;;14.07;31.65;100682.19;5053931;28;20060;-73
2021/03/26 09:57:49;;;;;;;17.27;9.45;;;;;;;14.08;32.56;100681.19;5052888;28;20100;-73
2021/03/26 10:00:43;;;;;;;19.10;9.05;;;;;;;14.14;31.06;100675.22;5049232;28;20028;-69
2021/03/26 10:03:25;;;;;;;19.35;9.07;;;;;;;14.13;32.26;100678.88;5052332;28;20091;-69
2021/03/26 10:06:02;;;;;;;18.15;9.73;;;;;;;14.24;31.57;100680.41;5052057;28;20017;-73
2021/03/26 10:11:07;;;;;;;15.80;9.45;;;;;;;14.11;32.50;100670.22;5061027;28;20043;-73
2021/03/26 10:13:43;;;;;;;14.07;8.85;;;;;;;13.98;32.77;100670.69;5060512;28;20347;-66
2021/03/26 10:16:10;;;;;;;19.08;9.52;;;;;;;14.10;32.22;100671.22;5061552;28;20334;-71
2021/03/26 10:18:48;;;;;;;18.85;9.57;;;;;;;14.21;29.97;100668.25;5056110;28;20343;-66
2021/03/26 10:21:26;;;;;;;17.70;9.00;;;;;;;14.33;31.24;100666.94;5051196;28;20370;-66
2021/03/26 10:24:05;;;;;;;19.83;9.15;;;;;;;14.33;29.88;100668.78;5060314;28;20032;-66
2021/03/26 10:26:42;;;;;;;34.92;10.63;;;;;;;14.28;29.61;100660.44;5053668;28;20021;-67
2021/03/26 10:29:40;;;;;;;16.65;8.35;;;;;;;14.17;30.21;100653.59;5051027;28;20075;-73
2021/03/26 10:32:25;;;;;;;20.42;9.48;;;;;;;14.38;29.45;100653.13;5051334;28;20029;-71
2021/03/26 10:34:53;;;;;;;29.48;10.90;;;;;;;14.45;29.81;100664.81;5049955;28;20025;-66
2021/03/26 10:37:39;;;;;;;18.73;9.15;;;;;;;14.30;29.11;100661.09;5049305;28;20453;-71
2021/03/26 10:40:08;;;;;;;14.25;7.63;;;;;;;14.48;30.53;100655.66;5048571;28;20120;-67
2021/03/26 10:43:17;;;;;;;18.85;8.93;;;;;;;14.38;30.39;100659.28;5051686;28;20219;-71
2021/03/26 10:45:55;;;;;;;14.90;7.05;;;;;;;14.39;28.75;100654.78;5052783;28;20032;-71
2021/03/26 10:48:30;;;;;;;11.13;5.45;;;;;;;14.42;28.40;100651.84;5049265;28;20044;-66
2021/03/26 10:51:19;;;;;;;8.55;5.43;;;;;;;14.51;27.88;100655.34;5053146;28;20212;-66
2021/03/26 10:53:50;;;;;;;11.85;5.97;;;;;;;14.52;26.92;100654.34;5059277;28;20116;-66
2021/03/26 10:56:41;;;;;;;10.77;4.80;;;;;;;14.52;27.37;100644.50;5060009;28;20044;-67
2021/03/26 10:59:17;;;;;;;9.15;4.82;;;;;;;14.34;26.57;100641.13;5059999;28;20102;-66
2021/03/26 11:01:45;;;;;;;12.80;5.57;;;;;;;14.33;25.24;100647.47;5059778;28;20033;-71
2021/03/26 11:04:23;;;;;;;8.23;4.75;;;;;;;14.27;24.97;100642.78;5060860;28;20028;-71
2021/03/26 11:07:14;;;;;;;9.32;5.13;;;;;;;14.22;26.83;100645.94;5057989;28;20220;-71
2021/03/26 11:09:45;;;;;;;11.00;5.75;;;;;;;13.74;26.86;100642.16;5054532;28;20040;-71
2021/03/26 11:12:36;;;;;;;8.82;5.10;;;;;;;13.80;25.70;100634.50;5059797;28;20044;-66
2021/03/26 11:15:43;;;;;;;19.58;6.85;;;;;;;13.71;27.51;100628.31;5056812;28;20082;-67
2021/03/26 11:18:19;;;;;;;9.85;4.90;;;;;;;13.85;27.31;100633.03;5075090;28;20048;-66
2021/03/26 11:21:07;;;;;;;10.57;5.40;;;;;;;13.61;30.16;100632.94;5060739;28;20231;-66
2021/03/26 11:23:37;;;;;;;11.75;5.35;;;;;;;13.67;28.48;100629.63;5060001;28;20064;-66
2021/03/26 11:26:18;;;;;;;8.98;4.68;;;;;;;13.64;25.65;100616.66;5056609;28;20045;-66
2021/03/26 11:28:53;;;;;;;8.48;4.72;;;;;;;13.72;26.93;100619.34;5060521;28;20090;-66
2021/03/26 11:31:34;;;;;;;;;;;;;;;13.53;26.02;100611.63;5058970;28;20096;-71
2021/03/26 11:34:08;;;;;;;7.35;4.20;;;;;;;13.57;26.85;100613.81;5060164;28;19924;-70
2021/03/26 11:36:38;;;;;;;;;;;;;;;13.43;26.76;100614.38;5060293;28;20033;-66
2021/03/26 11:39:12;;;;;;;12.02;4.95;;;;;;;13.60;27.04;100607.31;5060643;28;19928;-68
2021/03/26 11:42:01;;;;;;;10.48;5.35;;;;;;;13.58;27.37;100602.16;5059145;28;20067;-66
2021/03/26 11:44:30;;;;;;;9.85;4.80;;;;;;;13.88;25.61;100602.59;5058742;28;20222;-67
2021/03/26 11:47:01;;;;;;;8.93;4.45;;;;;;;13.95;25.89;100601.78;5058572;28;20087;-71
2021/03/26 11:49:33;;;;;;;10.05;4.72;;;;;;;14.09;27.90;100605.63;5059550;28;20087;-71
2021/03/26 11:52:06;;;;;;;8.18;5.05;;;;;;;14.21;27.39;100591.00;5058707;28;20048;-71
2021/03/26 11:54:49;;;;;;;9.40;4.97;;;;;;;14.23;25.81;100597.00;5060411;28;20060;-66
2021/03/26 11:57:14;;;;;;;10.63;5.07;;;;;;;14.20;26.48;100586.66;5059258;28;20079;-71
2021/03/26 11:59:55;;;;;;;10.45;5.00;;;;;;;14.34;26.52;100587.84;5060314;28;20060;-71
2021/03/26 12:02:26;;;;;;;10.43;4.30;;;;;;;14.31;26.23;100588.19;5059959;28;20036;-66
2021/03/26 12:05:09;;;;;;;9.65;4.53;;;;;;;14.23;25.26;100590.84;5059204;28;20037;-72
2021/03/26 12:08:03;;;;;;;8.63;4.80;;;;;;;14.33;24.54;100587.00;5060641;28;20048;-66
2021/03/26 12:10:43;;;;;;;10.32;4.90;;;;;;;14.25;25.73;100580.84;5060710;28;20094;-71